sensor_id;sensor_type;location;lat;lon;timestamp;P1;durP1;ratioP1;P2;durP2;ratioP2
27491;SDS011;14927;51.210;6.838;2023-05-21T00:00:10;13.10;;;7.32;;
27491;SDS011;14927;51.210;6.838;2023-05-21T00:02:55;10.15;;;6.82;;
27491;SDS011;14927;51.210;6.838;2023-05-21T00:05:41;10.18;;;7.05;;
27491;SDS011;14927;51.210;6.838;2023-05-21T00:08:29;12.23;;;6.45;;
27491;SDS011;14927;51.210;6.838;2023-05-21T00:11:14;10.05;;;6.05;;
27491;SDS011;14927;51.210;6.838;2023-05-21T00:13:59;8.90;;;6.28;;
27491;SDS011;14927;51.210;6.838;2023-05-21T00:16:43;10.10;;;6.50;;
27491;SDS011;14927;51.210;6.838;2023-05-21T00:19:29;11.85;;;5.50;;
27491;SDS011;14927;51.210;6.838;2023-05-21T00:22:16;8.23;;;5.85;;
27491;SDS011;14927;51.210;6.838;2023-05-21T00:25:01;6.65;;;5.10;;
27491;SDS011;14927;51.210;6.838;2023-05-21T00:27:46;7.75;;;5.80;;
27491;SDS011;14927;51.210;6.838;2023-05-21T00:30:30;8.77;;;5.38;;
27491;SDS011;14927;51.210;6.838;2023-05-21T00:33:15;6.68;;;5.15;;
27491;SDS011;14927;51.210;6.838;2023-05-21T00:35:59;7.13;;;5.90;;
27491;SDS011;14927;51.210;6.838;2023-05-21T00:38:44;7.53;;;5.43;;
27491;SDS011;14927;51.210;6.838;2023-05-21T00:41:29;7.32;;;5.68;;
27491;SDS011;14927;51.210;6.838;2023-05-21T00:44:13;8.00;;;5.88;;
27491;SDS011;14927;51.210;6.838;2023-05-21T00:46:59;6.30;;;5.35;;
27491;SDS011;14927;51.210;6.838;2023-05-21T00:49:45;11.93;;;6.13;;
27491;SDS011;14927;51.210;6.838;2023-05-21T00:52:31;8.68;;;6.35;;
27491;SDS011;14927;51.210;6.838;2023-05-21T00:55:15;9.52;;;6.13;;
27491;SDS011;14927;51.210;6.838;2023-05-21T00:58:00;8.63;;;5.70;;
27491;SDS011;14927;51.210;6.838;2023-05-21T01:00:46;7.88;;;5.88;;
27491;SDS011;14927;51.210;6.838;2023-05-21T01:03:31;8.25;;;6.40;;
27491;SDS011;14927;51.210;6.838;2023-05-21T01:06:21;8.93;;;5.93;;
27491;SDS011;14927;51.210;6.838;2023-05-21T01:09:05;10.57;;;6.35;;
27491;SDS011;14927;51.210;6.838;2023-05-21T01:11:52;10.18;;;7.18;;
27491;SDS011;14927;51.210;6.838;2023-05-21T01:14:38;7.80;;;6.53;;
27491;SDS011;14927;51.210;6.838;2023-05-21T01:17:24;10.07;;;7.15;;
27491;SDS011;14927;51.210;6.838;2023-05-21T01:20:11;10.77;;;7.28;;
27491;SDS011;14927;51.210;6.838;2023-05-21T01:22:57;9.45;;;6.43;;
27491;SDS011;14927;51.210;6.838;2023-05-21T01:25:41;10.45;;;7.43;;
27491;SDS011;14927;51.210;6.838;2023-05-21T01:28:27;8.88;;;7.03;;
27491;SDS011;14927;51.210;6.838;2023-05-21T01:31:18;9.88;;;7.07;;
27491;SDS011;14927;51.210;6.838;2023-05-21T01:34:12;9.07;;;7.30;;
27491;SDS011;14927;51.210;6.838;2023-05-21T01:37:03;9.90;;;7.43;;
27491;SDS011;14927;51.210;6.838;2023-05-21T01:40:15;8.40;;;6.72;;
27491;SDS011;14927;51.210;6.838;2023-05-21T01:43:22;9.65;;;7.18;;
27491;SDS011;14927;51.210;6.838;2023-05-21T01:46:09;9.88;;;7.57;;
27491;SDS011;14927;51.210;6.838;2023-05-21T01:51:43;9.27;;;6.43;;
27491;SDS011;14927;51.210;6.838;2023-05-21T01:54:28;11.73;;;7.40;;
27491;SDS011;14927;51.210;6.838;2023-05-21T01:57:13;9.68;;;7.68;;
27491;SDS011;14927;51.210;6.838;2023-05-21T01:59:57;10.43;;;7.72;;
27491;SDS011;14927;51.210;6.838;2023-05-21T02:02:42;11.70;;;7.40;;
27491;SDS011;14927;51.210;6.838;2023-05-21T02:05:27;9.63;;;7.63;;
27491;SDS011;14927;51.210;6.838;2023-05-21T02:08:11;9.63;;;7.35;;
27491;SDS011;14927;51.210;6.838;2023-05-21T02:10:57;9.77;;;7.10;;
27491;SDS011;14927;51.210;6.838;2023-05-21T02:13:42;9.98;;;7.57;;
27491;SDS011;14927;51.210;6.838;2023-05-21T02:16:28;10.95;;;7.28;;
27491;SDS011;14927;51.210;6.838;2023-05-21T02:19:13;9.73;;;8.15;;
27491;SDS011;14927;51.210;6.838;2023-05-21T02:21:57;12.85;;;7.78;;
27491;SDS011;14927;51.210;6.838;2023-05-21T02:24:42;10.05;;;7.50;;
27491;SDS011;14927;51.210;6.838;2023-05-21T02:27:27;8.43;;;6.60;;
27491;SDS011;14927;51.210;6.838;2023-05-21T02:30:14;10.52;;;7.32;;
27491;SDS011;14927;51.210;6.838;2023-05-21T02:32:59;13.20;;;6.88;;
27491;SDS011;14927;51.210;6.838;2023-05-21T02:35:43;9.48;;;6.65;;
27491;SDS011;14927;51.210;6.838;2023-05-21T02:38:28;10.00;;;7.00;;
27491;SDS011;14927;51.210;6.838;2023-05-21T02:41:15;9.57;;;6.65;;
27491;SDS011;14927;51.210;6.838;2023-05-21T02:44:00;8.25;;;6.05;;
27491;SDS011;14927;51.210;6.838;2023-05-21T02:46:44;8.30;;;6.38;;
27491;SDS011;14927;51.210;6.838;2023-05-21T02:49:29;7.68;;;6.00;;
27491;SDS011;14927;51.210;6.838;2023-05-21T02:52:14;10.95;;;6.60;;
27491;SDS011;14927;51.210;6.838;2023-05-21T02:55:01;9.23;;;6.28;;
27491;SDS011;14927;51.210;6.838;2023-05-21T02:57:46;8.75;;;6.95;;
27491;SDS011;14927;51.210;6.838;2023-05-21T03:00:31;10.55;;;6.32;;
27491;SDS011;14927;51.210;6.838;2023-05-21T03:03:15;8.18;;;6.45;;
27491;SDS011;14927;51.210;6.838;2023-05-21T03:06:00;9.05;;;6.45;;
27491;SDS011;14927;51.210;6.838;2023-05-21T03:08:45;9.88;;;6.28;;
27491;SDS011;14927;51.210;6.838;2023-05-21T03:11:30;8.45;;;6.45;;
27491;SDS011;14927;51.210;6.838;2023-05-21T03:14:14;15.48;;;6.55;;
27491;SDS011;14927;51.210;6.838;2023-05-21T03:16:59;10.88;;;6.28;;
27491;SDS011;14927;51.210;6.838;2023-05-21T03:19:48;9.48;;;6.13;;
27491;SDS011;14927;51.210;6.838;2023-05-21T03:22:33;11.18;;;6.05;;
27491;SDS011;14927;51.210;6.838;2023-05-21T03:25:20;9.48;;;6.40;;
27491;SDS011;14927;51.210;6.838;2023-05-21T03:28:07;9.82;;;6.35;;
27491;SDS011;14927;51.210;6.838;2023-05-21T03:30:54;7.13;;;5.93;;
27491;SDS011;14927;51.210;6.838;2023-05-21T03:33:39;10.00;;;6.10;;
27491;SDS011;14927;51.210;6.838;2023-05-21T03:36:24;9.82;;;6.55;;
27491;SDS011;14927;51.210;6.838;2023-05-21T03:39:08;9.77;;;6.30;;
27491;SDS011;14927;51.210;6.838;2023-05-21T03:41:53;8.77;;;6.35;;
27491;SDS011;14927;51.210;6.838;2023-05-21T03:44:38;7.80;;;6.10;;
27491;SDS011;14927;51.210;6.838;2023-05-21T03:47:22;9.65;;;6.70;;
27491;SDS011;14927;51.210;6.838;2023-05-21T03:50:07;10.75;;;6.25;;
27491;SDS011;14927;51.210;6.838;2023-05-21T03:52:53;8.00;;;6.43;;
27491;SDS011;14927;51.210;6.838;2023-05-21T03:55:37;8.15;;;5.65;;
27491;SDS011;14927;51.210;6.838;2023-05-21T03:58:22;13.25;;;5.93;;
27491;SDS011;14927;51.210;6.838;2023-05-21T04:01:07;10.43;;;6.55;;
27491;SDS011;14927;51.210;6.838;2023-05-21T04:03:52;7.25;;;5.68;;
27491;SDS011;14927;51.210;6.838;2023-05-21T04:06:37;12.32;;;6.20;;
27491;SDS011;14927;51.210;6.838;2023-05-21T04:09:21;9.45;;;6.75;;
27491;SDS011;14927;51.210;6.838;2023-05-21T04:12:06;7.30;;;6.30;;
27491;SDS011;14927;51.210;6.838;2023-05-21T04:14:51;7.78;;;5.88;;
27491;SDS011;14927;51.210;6.838;2023-05-21T04:17:36;7.57;;;6.30;;
27491;SDS011;14927;51.210;6.838;2023-05-21T04:20:20;8.60;;;5.97;;
27491;SDS011;14927;51.210;6.838;2023-05-21T04:23:05;9.88;;;5.97;;
27491;SDS011;14927;51.210;6.838;2023-05-21T04:25:50;7.38;;;5.85;;
27491;SDS011;14927;51.210;6.838;2023-05-21T04:28:35;8.90;;;6.07;;
27491;SDS011;14927;51.210;6.838;2023-05-21T04:31:20;7.15;;;5.88;;
27491;SDS011;14927;51.210;6.838;2023-05-21T04:34:05;9.95;;;5.88;;
27491;SDS011;14927;51.210;6.838;2023-05-21T04:36:50;8.20;;;5.90;;
27491;SDS011;14927;51.210;6.838;2023-05-21T04:39:35;8.57;;;6.05;;
27491;SDS011;14927;51.210;6.838;2023-05-21T04:42:19;7.10;;;5.68;;
27491;SDS011;14927;51.210;6.838;2023-05-21T04:45:07;8.02;;;5.82;;
27491;SDS011;14927;51.210;6.838;2023-05-21T04:47:53;8.25;;;6.57;;
27491;SDS011;14927;51.210;6.838;2023-05-21T04:50:37;9.60;;;6.25;;
27491;SDS011;14927;51.210;6.838;2023-05-21T04:53:24;7.95;;;6.20;;
27491;SDS011;14927;51.210;6.838;2023-05-21T04:56:08;8.80;;;5.63;;
27491;SDS011;14927;51.210;6.838;2023-05-21T04:58:53;7.05;;;5.95;;
27491;SDS011;14927;51.210;6.838;2023-05-21T05:01:38;7.53;;;6.25;;
27491;SDS011;14927;51.210;6.838;2023-05-21T05:04:22;7.13;;;5.78;;
27491;SDS011;14927;51.210;6.838;2023-05-21T05:07:07;8.18;;;5.82;;
27491;SDS011;14927;51.210;6.838;2023-05-21T05:09:52;7.45;;;5.82;;
27491;SDS011;14927;51.210;6.838;2023-05-21T05:12:37;7.40;;;5.75;;
27491;SDS011;14927;51.210;6.838;2023-05-21T05:15:22;10.13;;;6.70;;
27491;SDS011;14927;51.210;6.838;2023-05-21T05:18:07;10.90;;;6.43;;
27491;SDS011;14927;51.210;6.838;2023-05-21T05:20:51;8.00;;;5.45;;
27491;SDS011;14927;51.210;6.838;2023-05-21T05:23:36;7.57;;;6.13;;
27491;SDS011;14927;51.210;6.838;2023-05-21T05:26:20;7.00;;;6.15;;
27491;SDS011;14927;51.210;6.838;2023-05-21T05:29:05;7.05;;;6.00;;
27491;SDS011;14927;51.210;6.838;2023-05-21T05:31:49;7.15;;;5.97;;
27491;SDS011;14927;51.210;6.838;2023-05-21T05:34:34;7.80;;;6.00;;
27491;SDS011;14927;51.210;6.838;2023-05-21T05:37:20;9.75;;;6.03;;
27491;SDS011;14927;51.210;6.838;2023-05-21T05:40:04;8.10;;;6.22;;
27491;SDS011;14927;51.210;6.838;2023-05-21T05:42:50;9.57;;;6.55;;
27491;SDS011;14927;51.210;6.838;2023-05-21T05:45:35;6.65;;;5.93;;
27491;SDS011;14927;51.210;6.838;2023-05-21T05:48:19;7.30;;;5.88;;
27491;SDS011;14927;51.210;6.838;2023-05-21T05:51:04;10.05;;;6.80;;
27491;SDS011;14927;51.210;6.838;2023-05-21T05:53:49;6.97;;;6.15;;
27491;SDS011;14927;51.210;6.838;2023-05-21T05:56:34;10.20;;;6.15;;
27491;SDS011;14927;51.210;6.838;2023-05-21T05:59:18;8.68;;;6.45;;
27491;SDS011;14927;51.210;6.838;2023-05-21T06:02:03;8.98;;;6.57;;
27491;SDS011;14927;51.210;6.838;2023-05-21T06:04:48;10.50;;;6.13;;
27491;SDS011;14927;51.210;6.838;2023-05-21T06:07:32;9.80;;;6.82;;
27491;SDS011;14927;51.210;6.838;2023-05-21T06:10:17;9.25;;;6.53;;
27491;SDS011;14927;51.210;6.838;2023-05-21T06:13:03;10.57;;;6.68;;
27491;SDS011;14927;51.210;6.838;2023-05-21T06:15:48;8.90;;;6.40;;
27491;SDS011;14927;51.210;6.838;2023-05-21T06:18:32;9.73;;;6.65;;
27491;SDS011;14927;51.210;6.838;2023-05-21T06:21:17;9.80;;;6.60;;
27491;SDS011;14927;51.210;6.838;2023-05-21T06:24:02;8.65;;;7.05;;
27491;SDS011;14927;51.210;6.838;2023-05-21T06:26:46;9.73;;;6.53;;
27491;SDS011;14927;51.210;6.838;2023-05-21T06:29:31;8.27;;;6.57;;
27491;SDS011;14927;51.210;6.838;2023-05-21T06:32:16;8.18;;;5.95;;
27491;SDS011;14927;51.210;6.838;2023-05-21T06:35:01;6.90;;;6.15;;
27491;SDS011;14927;51.210;6.838;2023-05-21T06:37:45;7.97;;;6.40;;
27491;SDS011;14927;51.210;6.838;2023-05-21T06:40:31;9.50;;;6.88;;
27491;SDS011;14927;51.210;6.838;2023-05-21T06:43:15;11.40;;;7.50;;
27491;SDS011;14927;51.210;6.838;2023-05-21T06:46:00;9.85;;;7.07;;
27491;SDS011;14927;51.210;6.838;2023-05-21T06:48:45;11.52;;;7.25;;
27491;SDS011;14927;51.210;6.838;2023-05-21T06:51:29;9.10;;;7.03;;
27491;SDS011;14927;51.210;6.838;2023-05-21T06:54:14;8.05;;;6.57;;
27491;SDS011;14927;51.210;6.838;2023-05-21T06:56:59;8.00;;;6.40;;
27491;SDS011;14927;51.210;6.838;2023-05-21T06:59:44;9.45;;;6.70;;
27491;SDS011;14927;51.210;6.838;2023-05-21T07:02:29;8.73;;;6.32;;
27491;SDS011;14927;51.210;6.838;2023-05-21T07:05:13;8.80;;;6.47;;
27491;SDS011;14927;51.210;6.838;2023-05-21T07:07:58;9.18;;;7.07;;
27491;SDS011;14927;51.210;6.838;2023-05-21T07:10:42;8.02;;;6.57;;
27491;SDS011;14927;51.210;6.838;2023-05-21T07:13:28;8.10;;;6.85;;
27491;SDS011;14927;51.210;6.838;2023-05-21T07:16:12;12.70;;;7.30;;
27491;SDS011;14927;51.210;6.838;2023-05-21T07:18:58;9.82;;;6.55;;
27491;SDS011;14927;51.210;6.838;2023-05-21T07:21:43;9.27;;;6.88;;
27491;SDS011;14927;51.210;6.838;2023-05-21T07:24:28;9.43;;;7.22;;
27491;SDS011;14927;51.210;6.838;2023-05-21T07:27:14;11.63;;;8.13;;
27491;SDS011;14927;51.210;6.838;2023-05-21T07:29:58;8.73;;;7.50;;
27491;SDS011;14927;51.210;6.838;2023-05-21T07:32:43;8.07;;;6.75;;
27491;SDS011;14927;51.210;6.838;2023-05-21T07:35:28;11.35;;;7.75;;
27491;SDS011;14927;51.210;6.838;2023-05-21T07:38:13;12.65;;;7.45;;
27491;SDS011;14927;51.210;6.838;2023-05-21T07:40:57;11.00;;;7.45;;
27491;SDS011;14927;51.210;6.838;2023-05-21T07:43:42;7.97;;;7.13;;
27491;SDS011;14927;51.210;6.838;2023-05-21T07:46:26;9.18;;;7.28;;
27491;SDS011;14927;51.210;6.838;2023-05-21T07:49:11;10.18;;;7.38;;
27491;SDS011;14927;51.210;6.838;2023-05-21T07:51:59;11.13;;;8.98;;
27491;SDS011;14927;51.210;6.838;2023-05-21T07:54:43;12.15;;;7.78;;
27491;SDS011;14927;51.210;6.838;2023-05-21T07:57:28;7.88;;;6.97;;
27491;SDS011;14927;51.210;6.838;2023-05-21T08:00:13;11.68;;;7.07;;
27491;SDS011;14927;51.210;6.838;2023-05-21T08:02:58;8.38;;;6.97;;
27491;SDS011;14927;51.210;6.838;2023-05-21T08:05:43;8.23;;;7.22;;
27491;SDS011;14927;51.210;6.838;2023-05-21T08:08:31;8.73;;;7.03;;
27491;SDS011;14927;51.210;6.838;2023-05-21T08:11:16;9.10;;;7.90;;
27491;SDS011;14927;51.210;6.838;2023-05-21T08:14:00;10.40;;;6.93;;
27491;SDS011;14927;51.210;6.838;2023-05-21T08:16:45;9.75;;;7.88;;
27491;SDS011;14927;51.210;6.838;2023-05-21T08:19:30;8.30;;;7.07;;
27491;SDS011;14927;51.210;6.838;2023-05-21T08:22:16;9.25;;;7.13;;
27491;SDS011;14927;51.210;6.838;2023-05-21T08:25:00;10.13;;;7.65;;
27491;SDS011;14927;51.210;6.838;2023-05-21T08:27:45;9.00;;;7.78;;
27491;SDS011;14927;51.210;6.838;2023-05-21T08:30:30;8.02;;;7.05;;
27491;SDS011;14927;51.210;6.838;2023-05-21T08:33:14;9.13;;;7.53;;
27491;SDS011;14927;51.210;6.838;2023-05-21T08:35:59;8.38;;;7.18;;
27491;SDS011;14927;51.210;6.838;2023-05-21T08:38:44;10.10;;;8.52;;
27491;SDS011;14927;51.210;6.838;2023-05-21T08:41:29;10.65;;;8.52;;
27491;SDS011;14927;51.210;6.838;2023-05-21T08:44:14;10.70;;;8.43;;
27491;SDS011;14927;51.210;6.838;2023-05-21T08:47:04;10.02;;;8.07;;
27491;SDS011;14927;51.210;6.838;2023-05-21T08:49:53;13.07;;;9.27;;
27491;SDS011;14927;51.210;6.838;2023-05-21T08:52:38;9.00;;;8.10;;
27491;SDS011;14927;51.210;6.838;2023-05-21T08:55:23;11.57;;;8.73;;
27491;SDS011;14927;51.210;6.838;2023-05-21T08:58:09;11.18;;;7.97;;
27491;SDS011;14927;51.210;6.838;2023-05-21T09:00:56;8.65;;;7.18;;
27491;SDS011;14927;51.210;6.838;2023-05-21T09:03:40;10.23;;;7.82;;
27491;SDS011;14927;51.210;6.838;2023-05-21T09:06:26;9.57;;;7.63;;
27491;SDS011;14927;51.210;6.838;2023-05-21T09:09:27;12.95;;;8.45;;
27491;SDS011;14927;51.210;6.838;2023-05-21T09:12:24;11.65;;;8.23;;
27491;SDS011;14927;51.210;6.838;2023-05-21T09:15:10;9.30;;;8.20;;
27491;SDS011;14927;51.210;6.838;2023-05-21T09:17:55;10.52;;;8.65;;
27491;SDS011;14927;51.210;6.838;2023-05-21T09:20:40;12.40;;;9.02;;
27491;SDS011;14927;51.210;6.838;2023-05-21T09:23:24;12.90;;;9.30;;
27491;SDS011;14927;51.210;6.838;2023-05-21T09:26:11;12.00;;;8.82;;
27491;SDS011;14927;51.210;6.838;2023-05-21T09:28:56;11.10;;;9.40;;
27491;SDS011;14927;51.210;6.838;2023-05-21T09:31:43;12.10;;;8.65;;
27491;SDS011;14927;51.210;6.838;2023-05-21T09:34:28;11.93;;;8.88;;
27491;SDS011;14927;51.210;6.838;2023-05-21T09:37:14;11.70;;;8.68;;
27491;SDS011;14927;51.210;6.838;2023-05-21T09:39:59;16.77;;;8.82;;
27491;SDS011;14927;51.210;6.838;2023-05-21T09:42:47;11.13;;;8.38;;
27491;SDS011;14927;51.210;6.838;2023-05-21T09:45:36;10.40;;;8.75;;
27491;SDS011;14927;51.210;6.838;2023-05-21T09:48:34;13.55;;;9.13;;
27491;SDS011;14927;51.210;6.838;2023-05-21T09:51:27;12.55;;;9.70;;
27491;SDS011;14927;51.210;6.838;2023-05-21T09:54:12;11.88;;;9.68;;
27491;SDS011;14927;51.210;6.838;2023-05-21T09:56:57;11.55;;;9.05;;
27491;SDS011;14927;51.210;6.838;2023-05-21T09:59:45;12.52;;;9.02;;
27491;SDS011;14927;51.210;6.838;2023-05-21T10:02:33;14.18;;;8.20;;
27491;SDS011;14927;51.210;6.838;2023-05-21T10:05:21;16.38;;;9.00;;
27491;SDS011;14927;51.210;6.838;2023-05-21T10:08:11;8.98;;;7.95;;
27491;SDS011;14927;51.210;6.838;2023-05-21T10:10:58;11.07;;;8.50;;
27491;SDS011;14927;51.210;6.838;2023-05-21T10:13:46;12.07;;;8.88;;
27491;SDS011;14927;51.210;6.838;2023-05-21T10:16:45;11.23;;;9.57;;
27491;SDS011;14927;51.210;6.838;2023-05-21T10:19:30;13.75;;;9.55;;
27491;SDS011;14927;51.210;6.838;2023-05-21T10:22:19;11.23;;;10.02;;
27491;SDS011;14927;51.210;6.838;2023-05-21T10:25:04;10.93;;;9.05;;
27491;SDS011;14927;51.210;6.838;2023-05-21T10:27:53;11.63;;;9.43;;
27491;SDS011;14927;51.210;6.838;2023-05-21T10:30:38;12.02;;;9.65;;
27491;SDS011;14927;51.210;6.838;2023-05-21T10:33:23;11.30;;;8.98;;
27491;SDS011;14927;51.210;6.838;2023-05-21T10:36:09;10.43;;;8.77;;
27491;SDS011;14927;51.210;6.838;2023-05-21T10:38:54;11.68;;;8.57;;
27491;SDS011;14927;51.210;6.838;2023-05-21T10:41:45;9.80;;;8.57;;
27491;SDS011;14927;51.210;6.838;2023-05-21T10:51:27;11.60;;;9.65;;
27491;SDS011;14927;51.210;6.838;2023-05-21T10:58:05;14.35;;;10.07;;
27491;SDS011;14927;51.210;6.838;2023-05-21T11:01:15;14.75;;;10.48;;
27491;SDS011;14927;51.210;6.838;2023-05-21T11:04:05;17.35;;;9.68;;
27491;SDS011;14927;51.210;6.838;2023-05-21T11:06:50;12.48;;;9.80;;
27491;SDS011;14927;51.210;6.838;2023-05-21T11:09:34;14.27;;;10.40;;
27491;SDS011;14927;51.210;6.838;2023-05-21T11:12:19;12.38;;;10.55;;
27491;SDS011;14927;51.210;6.838;2023-05-21T11:15:06;12.52;;;10.65;;
27491;SDS011;14927;51.210;6.838;2023-05-21T11:17:51;11.38;;;9.88;;
27491;SDS011;14927;51.210;6.838;2023-05-21T11:20:45;12.30;;;10.57;;
27491;SDS011;14927;51.210;6.838;2023-05-21T11:23:55;13.13;;;10.45;;
27491;SDS011;14927;51.210;6.838;2023-05-21T11:29:41;11.65;;;10.38;;
27491;SDS011;14927;51.210;6.838;2023-05-21T11:32:27;16.17;;;11.25;;
27491;SDS011;14927;51.210;6.838;2023-05-21T11:35:12;12.75;;;9.98;;
27491;SDS011;14927;51.210;6.838;2023-05-21T11:37:57;13.02;;;9.57;;
27491;SDS011;14927;51.210;6.838;2023-05-21T11:40:51;13.88;;;10.40;;
27491;SDS011;14927;51.210;6.838;2023-05-21T11:43:42;11.23;;;9.85;;
27491;SDS011;14927;51.210;6.838;2023-05-21T11:46:27;14.10;;;11.07;;
27491;SDS011;14927;51.210;6.838;2023-05-21T11:49:13;11.90;;;9.95;;
27491;SDS011;14927;51.210;6.838;2023-05-21T11:51:59;12.02;;;9.80;;
27491;SDS011;14927;51.210;6.838;2023-05-21T11:54:44;12.32;;;10.18;;
27491;SDS011;14927;51.210;6.838;2023-05-21T11:57:36;12.10;;;10.05;;
27491;SDS011;14927;51.210;6.838;2023-05-21T12:00:20;17.83;;;10.25;;
27491;SDS011;14927;51.210;6.838;2023-05-21T12:03:05;11.65;;;9.95;;
27491;SDS011;14927;51.210;6.838;2023-05-21T12:05:51;12.95;;;10.15;;
27491;SDS011;14927;51.210;6.838;2023-05-21T12:08:36;12.52;;;10.05;;
27491;SDS011;14927;51.210;6.838;2023-05-21T12:11:21;13.40;;;10.25;;
27491;SDS011;14927;51.210;6.838;2023-05-21T12:14:08;15.93;;;10.00;;
27491;SDS011;14927;51.210;6.838;2023-05-21T12:16:53;12.57;;;10.32;;
27491;SDS011;14927;51.210;6.838;2023-05-21T12:19:38;11.82;;;9.80;;
27491;SDS011;14927;51.210;6.838;2023-05-21T12:22:23;11.77;;;9.10;;
27491;SDS011;14927;51.210;6.838;2023-05-21T12:25:10;17.30;;;10.40;;
27491;SDS011;14927;51.210;6.838;2023-05-21T12:27:55;15.70;;;10.25;;
27491;SDS011;14927;51.210;6.838;2023-05-21T12:30:41;11.35;;;9.07;;
27491;SDS011;14927;51.210;6.838;2023-05-21T12:33:32;14.35;;;9.77;;
27491;SDS011;14927;51.210;6.838;2023-05-21T12:36:21;14.52;;;9.77;;
27491;SDS011;14927;51.210;6.838;2023-05-21T12:39:10;11.48;;;9.07;;
27491;SDS011;14927;51.210;6.838;2023-05-21T12:41:54;14.70;;;9.98;;
27491;SDS011;14927;51.210;6.838;2023-05-21T12:44:42;11.10;;;9.32;;
27491;SDS011;14927;51.210;6.838;2023-05-21T12:47:28;14.88;;;9.52;;
27491;SDS011;14927;51.210;6.838;2023-05-21T12:50:13;10.82;;;8.85;;
27491;SDS011;14927;51.210;6.838;2023-05-21T12:52:58;11.13;;;8.93;;
27491;SDS011;14927;51.210;6.838;2023-05-21T12:55:42;11.63;;;9.52;;
27491;SDS011;14927;51.210;6.838;2023-05-21T12:58:27;9.27;;;8.27;;
27491;SDS011;14927;51.210;6.838;2023-05-21T13:01:16;15.80;;;9.10;;
27491;SDS011;14927;51.210;6.838;2023-05-21T13:04:00;11.35;;;8.50;;
27491;SDS011;14927;51.210;6.838;2023-05-21T13:06:47;13.23;;;8.30;;
27491;SDS011;14927;51.210;6.838;2023-05-21T13:09:32;10.50;;;8.35;;
27491;SDS011;14927;51.210;6.838;2023-05-21T13:12:17;13.60;;;9.35;;
27491;SDS011;14927;51.210;6.838;2023-05-21T13:15:05;16.73;;;10.30;;
27491;SDS011;14927;51.210;6.838;2023-05-21T13:17:50;9.82;;;8.75;;
27491;SDS011;14927;51.210;6.838;2023-05-21T13:20:35;9.95;;;8.35;;
27491;SDS011;14927;51.210;6.838;2023-05-21T13:23:19;13.23;;;8.43;;
27491;SDS011;14927;51.210;6.838;2023-05-21T13:26:04;9.60;;;7.80;;
27491;SDS011;14927;51.210;6.838;2023-05-21T13:28:49;10.75;;;8.02;;
27491;SDS011;14927;51.210;6.838;2023-05-21T13:31:33;10.00;;;8.40;;
27491;SDS011;14927;51.210;6.838;2023-05-21T13:34:18;10.45;;;8.13;;
27491;SDS011;14927;51.210;6.838;2023-05-21T13:37:03;11.88;;;8.73;;
27491;SDS011;14927;51.210;6.838;2023-05-21T13:39:47;11.25;;;8.63;;
27491;SDS011;14927;51.210;6.838;2023-05-21T13:42:32;12.18;;;8.65;;
27491;SDS011;14927;51.210;6.838;2023-05-21T13:45:19;9.63;;;8.02;;
27491;SDS011;14927;51.210;6.838;2023-05-21T13:48:03;9.43;;;8.07;;
27491;SDS011;14927;51.210;6.838;2023-05-21T13:50:49;9.52;;;7.97;;
27491;SDS011;14927;51.210;6.838;2023-05-21T13:53:33;10.00;;;8.55;;
27491;SDS011;14927;51.210;6.838;2023-05-21T13:56:18;9.57;;;7.47;;
27491;SDS011;14927;51.210;6.838;2023-05-21T13:59:04;9.55;;;8.55;;
27491;SDS011;14927;51.210;6.838;2023-05-21T14:01:49;10.90;;;8.80;;
27491;SDS011;14927;51.210;6.838;2023-05-21T14:04:35;10.05;;;8.43;;
27491;SDS011;14927;51.210;6.838;2023-05-21T14:07:19;9.40;;;8.40;;
27491;SDS011;14927;51.210;6.838;2023-05-21T14:10:05;8.80;;;8.00;;
27491;SDS011;14927;51.210;6.838;2023-05-21T14:12:49;10.25;;;9.20;;
27491;SDS011;14927;51.210;6.838;2023-05-21T14:15:34;9.32;;;7.70;;
27491;SDS011;14927;51.210;6.838;2023-05-21T14:18:19;9.95;;;8.95;;
27491;SDS011;14927;51.210;6.838;2023-05-21T14:21:04;10.45;;;7.82;;
27491;SDS011;14927;51.210;6.838;2023-05-21T14:23:49;8.82;;;7.93;;
27491;SDS011;14927;51.210;6.838;2023-05-21T14:26:33;13.60;;;9.20;;
27491;SDS011;14927;51.210;6.838;2023-05-21T14:29:19;9.40;;;8.50;;
27491;SDS011;14927;51.210;6.838;2023-05-21T14:32:04;10.50;;;8.60;;
27491;SDS011;14927;51.210;6.838;2023-05-21T14:34:50;10.52;;;9.32;;
27491;SDS011;14927;51.210;6.838;2023-05-21T14:37:34;10.18;;;8.77;;
27491;SDS011;14927;51.210;6.838;2023-05-21T14:40:19;10.95;;;9.00;;
27491;SDS011;14927;51.210;6.838;2023-05-21T14:43:03;10.32;;;9.27;;
27491;SDS011;14927;51.210;6.838;2023-05-21T14:45:48;10.27;;;8.65;;
27491;SDS011;14927;51.210;6.838;2023-05-21T14:48:33;11.18;;;10.02;;
27491;SDS011;14927;51.210;6.838;2023-05-21T14:51:18;11.00;;;9.10;;
27491;SDS011;14927;51.210;6.838;2023-05-21T14:54:03;15.93;;;10.38;;
27491;SDS011;14927;51.210;6.838;2023-05-21T14:56:47;9.93;;;8.73;;
27491;SDS011;14927;51.210;6.838;2023-05-21T14:59:32;11.80;;;10.50;;
27491;SDS011;14927;51.210;6.838;2023-05-21T15:02:16;13.48;;;9.35;;
27491;SDS011;14927;51.210;6.838;2023-05-21T15:05:01;11.85;;;9.35;;
27491;SDS011;14927;51.210;6.838;2023-05-21T15:07:46;12.43;;;9.43;;
27491;SDS011;14927;51.210;6.838;2023-05-21T15:10:30;9.82;;;8.48;;
27491;SDS011;14927;51.210;6.838;2023-05-21T15:13:15;9.20;;;7.88;;
27491;SDS011;14927;51.210;6.838;2023-05-21T15:16:00;10.60;;;8.77;;
27491;SDS011;14927;51.210;6.838;2023-05-21T15:18:44;10.40;;;8.95;;
27491;SDS011;14927;51.210;6.838;2023-05-21T15:21:29;15.32;;;11.38;;
27491;SDS011;14927;51.210;6.838;2023-05-21T15:24:13;12.35;;;9.63;;
27491;SDS011;14927;51.210;6.838;2023-05-21T15:26:58;10.77;;;8.93;;
27491;SDS011;14927;51.210;6.838;2023-05-21T15:29:43;10.63;;;9.40;;
27491;SDS011;14927;51.210;6.838;2023-05-21T15:32:30;11.52;;;10.02;;
27491;SDS011;14927;51.210;6.838;2023-05-21T15:35:15;10.27;;;9.18;;
27491;SDS011;14927;51.210;6.838;2023-05-21T15:37:59;12.02;;;9.40;;
27491;SDS011;14927;51.210;6.838;2023-05-21T15:40:44;10.25;;;7.93;;
27491;SDS011;14927;51.210;6.838;2023-05-21T15:43:30;12.95;;;9.48;;
27491;SDS011;14927;51.210;6.838;2023-05-21T15:46:14;10.30;;;9.20;;
27491;SDS011;14927;51.210;6.838;2023-05-21T15:48:59;16.05;;;9.82;;
27491;SDS011;14927;51.210;6.838;2023-05-21T15:51:45;11.35;;;8.50;;
27491;SDS011;14927;51.210;6.838;2023-05-21T15:54:30;12.20;;;8.90;;
27491;SDS011;14927;51.210;6.838;2023-05-21T15:57:14;10.85;;;8.27;;
27491;SDS011;14927;51.210;6.838;2023-05-21T15:59:59;10.65;;;7.88;;
27491;SDS011;14927;51.210;6.838;2023-05-21T16:02:44;12.25;;;9.63;;
27491;SDS011;14927;51.210;6.838;2023-05-21T16:05:28;12.80;;;9.40;;
27491;SDS011;14927;51.210;6.838;2023-05-21T16:08:13;11.13;;;8.80;;
27491;SDS011;14927;51.210;6.838;2023-05-21T16:10:58;11.65;;;8.90;;
27491;SDS011;14927;51.210;6.838;2023-05-21T16:13:42;8.88;;;7.97;;
27491;SDS011;14927;51.210;6.838;2023-05-21T16:16:27;13.65;;;8.63;;
27491;SDS011;14927;51.210;6.838;2023-05-21T16:19:11;13.73;;;8.63;;
27491;SDS011;14927;51.210;6.838;2023-05-21T16:21:56;9.43;;;8.45;;
27491;SDS011;14927;51.210;6.838;2023-05-21T16:24:41;9.68;;;8.35;;
27491;SDS011;14927;51.210;6.838;2023-05-21T16:27:25;11.52;;;7.68;;
27491;SDS011;14927;51.210;6.838;2023-05-21T16:30:10;8.85;;;7.80;;
27491;SDS011;14927;51.210;6.838;2023-05-21T16:32:55;10.20;;;7.82;;
27491;SDS011;14927;51.210;6.838;2023-05-21T16:35:39;8.68;;;7.43;;
27491;SDS011;14927;51.210;6.838;2023-05-21T16:38:24;13.40;;;7.82;;
27491;SDS011;14927;51.210;6.838;2023-05-21T16:41:09;8.43;;;7.63;;
27491;SDS011;14927;51.210;6.838;2023-05-21T16:43:53;8.85;;;7.88;;
27491;SDS011;14927;51.210;6.838;2023-05-21T16:46:38;9.43;;;8.40;;